Time;durP1;ratioP1;P1;durP2;ratioP2;P2;SDS_P1;SDS_P2;PMS_P1;PMS_P2;Temp;Humidity;BMP_temperature;BMP_pressure;BME280_temperature;BME280_humidity;BME280_pressure;Samples;Min_cycle;Max_cycle;Signal;HPM_P1;HPM_P2
2023/07/13 00:00:09;;;;;;;8.90;6.40;;;;;;;20.61;84.03;97609.42;106729;1282;23953;-79
2023/07/13 00:03:00;;;;;;;5.70;4.70;;;;;;;20.52;84.72;97613.29;106757;1282;22540;-79
2023/07/13 00:05:28;;;;;;;8.80;5.30;;;;;;;20.41;87.20;97619.14;106772;1282;23347;-79
2023/07/13 00:07:55;;;;;;;9.30;5.90;;;;;;;20.28;86.86;97627.40;106723;1282;22590;-77
2023/07/13 00:10:22;;;;;;;8.30;5.20;;;;;;;20.18;87.98;97637.89;106778;1282;22553;-79
2023/07/13 00:12:49;;;;;;;10.40;6.10;;;;;;;20.10;89.21;97639.26;106661;1282;22752;-79
2023/07/13 00:15:22;;;;;;;7.90;5.90;;;;;;;20.03;89.34;97638.98;106633;1282;24148;-79
2023/07/13 00:17:54;;;;;;;7.80;5.60;;;;;;;19.97;88.60;97646.02;106758;1282;24102;-78
2023/07/13 00:20:24;;;;;;;7.30;5.70;;;;;;;19.91;91.27;97641.08;106857;1282;25295;-79
2023/07/13 00:22:53;;;;;;;6.90;5.70;;;;;;;19.84;90.48;97647.11;106857;1282;22551;-77
2023/07/13 00:25:24;;;;;;;8.00;5.20;;;;;;;19.78;90.43;97647.34;106828;1282;25383;-78
2023/07/13 00:27:50;;;;;;;9.70;5.90;;;;;;;19.76;89.26;97638.33;106746;1282;22588;-79
2023/07/13 00:30:17;;;;;;;7.50;5.60;;;;;;;19.79;89.55;97634.54;106727;1282;22597;-78
2023/07/13 00:32:44;;;;;;;9.60;5.50;;;;;;;19.86;89.27;97629.50;106798;1282;22895;-78
2023/07/13 00:35:13;;;;;;;6.90;4.30;;;;;;;19.96;90.48;97624.73;106810;1282;22533;-78
2023/07/13 00:37:40;;;;;;;7.90;4.80;;;;;;;20.16;90.68;97623.23;106797;1282;25427;-78
2023/07/13 00:40:10;;;;;;;6.70;4.90;;;;;;;20.20;88.65;97631.20;106837;1282;24221;-78
2023/07/13 00:42:37;;;;;;;9.10;5.70;;;;;;;20.16;89.12;97626.77;106869;1282;22600;-78
2023/07/13 00:45:24;;;;;;;8.50;5.20;;;;;;;20.17;89.64;97628.11;106872;1282;22579;-78
2023/07/13 00:47:51;;;;;;;8.00;3.80;;;;;;;20.32;91.03;97622.23;106453;1282;25401;-78
2023/07/13 00:50:21;;;;;;;8.90;5.00;;;;;;;20.54;91.59;97608.30;106760;1282;23415;-78
2023/07/13 00:52:53;;;;;;;9.40;5.60;;;;;;;20.68;89.17;97606.54;106810;1282;25436;-78
2023/07/13 00:55:21;;;;;;;7.40;4.70;;;;;;;20.58;88.92;97602.90;106716;1282;22569;-78
2023/07/13 00:57:49;;;;;;;7.90;5.60;;;;;;;20.61;91.70;97591.05;106739;1282;22552;-77
2023/07/13 01:00:16;;;;;;;8.50;5.60;;;;;;;20.59;89.39;97580.23;106890;1282;23924;-78
2023/07/13 01:02:46;;;;;;;10.80;5.70;;;;;;;20.48;88.59;97581.55;106725;1282;22547;-77
2023/07/13 01:05:16;;;;;;;7.10;5.10;;;;;;;20.33;88.86;97577.52;106781;1282;22576;-77
2023/07/13 01:07:44;;;;;;;8.70;4.90;;;;;;;20.32;90.16;97550.38;106878;1282;22617;-78
2023/07/13 01:10:13;;;;;;;7.80;4.60;;;;;;;20.44;93.01;97539.81;106770;1282;25495;-78
2023/07/13 01:12:40;;;;;;;8.60;5.00;;;;;;;20.48;89.86;97540.80;106755;1282;24098;-77
2023/07/13 01:15:33;;;;;;;7.00;4.20;;;;;;;20.46;89.53;97528.27;106792;1282;22542;-78
2023/07/13 01:18:00;;;;;;;6.40;4.60;;;;;;;20.52;89.69;97515.61;106840;1282;25430;-77
2023/07/13 01:20:26;;;;;;;7.40;4.30;;;;;;;20.56;90.49;97521.77;106645;1282;26036;-78
2023/07/13 01:22:53;;;;;;;7.30;4.20;;;;;;;20.71;90.27;97517.78;106761;1282;22575;-77
2023/07/13 01:25:21;;;;;;;7.20;4.00;;;;;;;20.72;89.42;97511.08;106731;1280;22534;-78
2023/07/13 01:27:47;;;;;;;5.80;4.30;;;;;;;20.80;90.13;97502.95;106579;1282;22612;-78
2023/07/13 01:30:14;;;;;;;7.50;5.00;;;;;;;20.85;89.89;97498.86;106652;1282;25403;-78
2023/07/13 01:32:41;;;;;;;5.10;3.60;;;;;;;20.92;90.53;97498.69;106612;1265;24224;-77
2023/07/13 01:35:08;;;;;;;7.10;4.80;;;;;;;21.03;89.52;97491.66;106791;1282;23905;-77
2023/07/13 01:37:35;;;;;;;6.80;4.30;;;;;;;20.97;88.77;97495.59;106701;1282;22610;-78
2023/07/13 01:40:04;;;;;;;8.00;4.70;;;;;;;21.02;89.32;97501.74;106776;1282;22579;-78
2023/07/13 01:42:31;;;;;;;6.30;4.60;;;;;;;20.97;88.14;97511.64;107981;1282;22474;-79
2023/07/13 01:44:57;;;;;;;7.80;4.90;;;;;;;20.79;88.07;97514.75;109469;1282;22555;-79
2023/07/13 01:47:26;;;;;;;6.80;4.90;;;;;;;20.49;88.89;97521.05;107241;1282;24222;-77
2023/07/13 01:49:52;;;;;;;7.70;4.80;;;;;;;20.18;88.72;97536.20;106715;1282;22654;-77
2023/07/13 01:52:19;;;;;;;6.80;4.70;;;;;;;19.96;88.64;97544.66;106752;1282;22687;-79
2023/07/13 01:54:45;;;;;;;6.00;4.80;;;;;;;19.82;89.26;97550.63;106761;1282;22549;-79
2023/07/13 01:57:12;;;;;;;10.50;5.70;;;;;;;19.75;89.37;97547.00;106802;1282;24289;-78
2023/07/13 01:59:38;;;;;;;7.90;4.40;;;;;;;19.71;89.77;97538.21;106740;1282;24257;-77
2023/07/13 02:02:07;;;;;;;5.70;3.90;;;;;;;19.78;92.15;97516.20;106776;1282;25393;-77
2023/07/13 02:04:35;;;;;;;8.00;6.50;;;;;;;19.98;92.28;97500.94;106844;1282;23674;-78
2023/07/13 02:07:01;;;;;;;8.40;6.50;;;;;;;20.04;91.75;97496.00;106712;1282;25396;-79
2023/07/13 02:09:28;;;;;;;9.00;6.30;;;;;;;20.03;91.00;97499.67;106757;1282;22540;-79
2023/07/13 02:11:55;;;;;;;10.20;7.00;;;;;;;20.04;90.67;97507.65;106729;1282;24453;-79
2023/07/13 02:14:22;;;;;;;10.40;7.80;;;;;;;19.94;90.10;97527.91;106844;1282;22718;-79
2023/07/13 02:16:48;;;;;;;11.90;8.20;;;;;;;19.80;90.59;97535.28;106756;1282;22537;-79
2023/07/13 02:19:15;;;;;;;11.70;8.50;;;;;;;19.63;90.92;97537.13;106563;1282;22540;-78
2023/07/13 02:21:42;;;;;;;11.00;8.30;;;;;;;19.62;92.02;97538.80;106707;1272;22590;-78
2023/07/13 02:24:17;;;;;;;11.10;8.20;;;;;;;19.63;91.43;97544.94;106770;1282;22632;-78
2023/07/13 02:26:44;;;;;;;11.00;7.50;;;;;;;19.55;91.08;97550.56;106853;1282;22581;-79
2023/07/13 02:29:11;;;;;;;10.70;8.40;;;;;;;19.51;91.36;97548.88;106807;1282;25542;-79
2023/07/13 02:31:37;;;;;;;11.30;8.00;;;;;;;19.43;91.17;97553.02;106842;1282;22554;-79
2023/07/13 02:34:04;;;;;;;11.80;9.50;;;;;;;19.36;91.76;97562.59;106792;1282;22539;-78
2023/07/13 02:36:32;;;;;;;10.80;8.60;;;;;;;19.25;92.45;97564.67;106721;1282;23038;-78
2023/07/13 02:39:01;;;;;;;9.20;7.90;;;;;;;19.16;93.07;97555.63;106716;1282;22849;-78
2023/07/13 02:41:28;;;;;;;10.80;8.30;;;;;;;19.17;93.33;97557.73;106712;1282;22656;-78
2023/07/13 02:44:02;;;;;;;12.40;8.80;;;;;;;19.17;93.01;97553.15;106768;1282;24270;-78
2023/07/13 02:46:30;;;;;;;9.80;8.10;;;;;;;19.20;93.38;97540.78;106796;1282;22539;-78
2023/07/13 02:48:57;;;;;;;9.20;7.00;;;;;;;19.24;93.98;97536.48;106679;1282;25552;-78
2023/07/13 02:51:24;;;;;;;8.20;6.50;;;;;;;19.31;94.67;97533.39;106851;1282;22580;-78
2023/07/13 02:53:51;;;;;;;5.70;4.80;;;;;;;19.52;97.76;97526.63;106691;1282;24388;-79
2023/07/13 02:56:28;;;;;;;6.10;5.00;;;;;;;19.84;99.22;97519.41;106771;1282;23162;-78
2023/07/13 02:58:55;;;;;;;7.70;5.90;;;;;;;20.11;98.84;97511.80;106659;1282;22699;-78
2023/07/13 03:01:22;;;;;;;7.10;5.70;;;;;;;20.26;97.47;97514.19;106765;1282;22547;-78
2023/07/13 03:03:51;;;;;;;8.00;5.20;;;;;;;20.39;97.58;97512.86;106785;1282;22632;-78
2023/07/13 03:06:21;;;;;;;7.50;5.90;;;;;;;20.56;97.85;97504.88;106628;1282;25308;-78
2023/07/13 03:08:50;;;;;;;7.40;5.90;;;;;;;20.73;97.09;97502.00;106764;1282;22546;-78
2023/07/13 03:11:19;;;;;;;7.60;5.10;;;;;;;20.87;96.36;97495.73;106771;1282;22555;-78
2023/07/13 03:13:49;;;;;;;7.70;6.20;;;;;;;21.00;95.44;97502.28;106637;1282;22537;-78
2023/07/13 03:16:16;;;;;;;6.00;5.30;;;;;;;21.09;94.47;97505.80;106744;1282;25239;-78
2023/07/13 03:18:48;;;;;;;9.10;8.10;;;;;;;21.12;93.71;97506.07;106776;1282;23370;-78
2023/07/13 03:21:16;;;;;;;12.30;9.60;;;;;;;21.08;92.58;97515.11;106882;1282;23317;-78
2023/07/13 03:23:43;;;;;;;10.10;9.10;;;;;;;20.79;92.13;97515.59;106750;1282;25094;-78
2023/07/13 03:26:13;;;;;;;11.90;9.20;;;;;;;20.54;92.11;97518.52;106817;1282;24207;-78
2023/07/13 03:28:41;;;;;;;12.00;9.40;;;;;;;20.38;92.27;97515.66;106926;1282;22537;-78
2023/07/13 03:31:22;;;;;;;7.10;5.90;;;;;;;20.27;93.68;97512.09;106913;1282;22538;-78
2023/07/13 03:33:49;;;;;;;8.60;7.70;;;;;;;20.41;95.47;97513.66;106869;1282;24217;-79
2023/07/13 03:36:19;;;;;;;8.90;7.30;;;;;;;20.63;96.15;97516.45;106697;1282;22565;-78
2023/07/13 03:38:52;;;;;;;6.70;5.80;;;;;;;20.74;93.94;97516.73;106749;1282;24329;-79
2023/07/13 03:41:23;;;;;;;9.30;8.40;;;;;;;20.78;94.08;97514.59;106664;1282;22657;-78
2023/07/13 03:43:50;;;;;;;10.30;8.00;;;;;;;20.66;92.50;97512.48;106795;1282;25287;-77
2023/07/13 03:46:19;;;;;;;8.50;7.70;;;;;;;20.38;92.66;97510.90;106813;1282;22633;-78
2023/07/13 03:48:47;;;;;;;9.10;8.20;;;;;;;20.17;92.79;97515.41;106758;1282;22541;-78
2023/07/13 03:51:16;;;;;;;9.90;7.80;;;;;;;20.04;92.90;97522.18;106788;1282;23412;-78
2023/07/13 03:53:44;;;;;;;8.90;7.60;;;;;;;19.95;93.48;97525.34;106739;1282;24249;-77
2023/07/13 03:56:15;;;;;;;10.70;7.20;;;;;;;19.89;93.67;97528.16;106741;1282;24247;-78
2023/07/13 03:58:43;;;;;;;8.70;7.30;;;;;;;19.90;94.18;97529.18;106827;1282;22685;-77
2023/07/13 04:01:20;;;;;;;8.10;6.90;;;;;;;19.94;94.31;97525.17;106696;1282;24392;-78
2023/07/13 04:03:47;;;;;;;9.60;7.40;;;;;;;19.85;95.62;97530.92;106781;1282;22714;-77
2023/07/13 04:06:20;;;;;;;8.10;6.30;;;;;;;19.72;97.40;97534.38;106463;1282;22540;-78
2023/07/13 04:08:50;;;;;;;10.20;8.00;;;;;;;19.66;97.10;97536.72;107149;1282;22539;-78
2023/07/13 04:11:18;;;;;;;13.40;7.70;;;;;;;19.66;97.21;97542.58;107101;1282;22545;-77
2023/07/13 04:13:46;;;;;;;9.00;6.30;;;;;;;19.64;98.36;97550.02;107142;1282;22659;-77
2023/07/13 04:16:14;;;;;;;8.60;7.10;;;;;;;19.61;99.37;97555.58;107163;1282;22606;-79
2023/07/13 04:18:41;;;;;;;8.80;7.30;;;;;;;19.57;99.88;97555.68;106400;1282;22587;-76
2023/07/13 04:21:09;;;;;;;7.90;6.70;;;;;;;19.56;99.65;97559.33;106466;1282;26001;-76
2023/07/13 04:23:37;;;;;;;7.90;7.10;;;;;;;19.57;99.66;97565.60;106417;1282;25470;-75
2023/07/13 04:26:04;;;;;;;7.40;6.40;;;;;;;19.59;100.00;97572.09;106395;1282;24261;-77
2023/07/13 04:28:31;;;;;;;9.10;6.70;;;;;;;19.59;100.00;97572.66;106381;1282;22540;-76
2023/07/13 04:30:57;;;;;;;10.10;7.10;;;;;;;19.62;100.00;97578.01;106398;1272;22562;-76
2023/07/13 04:33:24;;;;;;;8.90;7.00;;;;;;;19.73;99.99;97581.56;106373;1282;22708;-76
2023/07/13 04:35:56;;;;;;;8.90;6.80;;;;;;;19.83;100.00;97581.73;108607;1282;22559;-79
2023/07/13 04:38:27;;;;;;;9.40;6.30;;;;;;;19.88;100.00;97586.17;108964;1282;22594;-78
2023/07/13 04:41:05;;;;;;;9.20;6.90;;;;;;;19.91;100.00;97583.73;106394;1282;25243;-76
2023/07/13 04:43:33;;;;;;;6.90;6.10;;;;;;;19.92;100.00;97585.39;106411;1282;22652;-80
2023/07/13 04:46:08;;;;;;;7.20;5.70;;;;;;;19.94;100.00;97576.66;106560;1282;25330;-82
2023/07/13 04:48:35;;;;;;;8.00;6.90;;;;;;;20.02;100.00;97565.36;106859;1282;24257;-80
2023/07/13 04:51:02;;;;;;;6.70;6.00;;;;;;;20.09;100.00;97552.58;106840;1282;22555;-82
2023/07/13 04:53:30;;;;;;;9.50;5.80;;;;;;;20.22;100.00;97544.92;106778;1282;22725;-79
2023/07/13 04:55:58;;;;;;;7.50;6.20;;;;;;;20.46;100.00;97542.74;106459;1272;22677;-79
2023/07/13 04:58:25;;;;;;;11.40;6.60;;;;;;;20.69;100.00;97540.45;106434;1282;24383;-78
2023/07/13 05:00:53;;;;;;;10.10;6.10;;;;;;;20.90;100.00;97541.77;106558;1282;22559;-79
2023/07/13 05:03:20;;;;;;;13.70;7.10;;;;;;;21.10;100.00;97545.81;106833;1282;24197;-78
2023/07/13 05:05:58;;;;;;;10.00;6.10;;;;;;;21.25;100.00;97544.46;106812;1282;22654;-79
2023/07/13 05:08:25;;;;;;;7.80;6.60;;;;;;;21.38;100.00;97541.16;106909;1282;22577;-78
2023/07/13 05:10:52;;;;;;;7.80;6.10;;;;;;;21.40;100.00;97539.54;106927;1282;23523;-78
2023/07/13 05:13:19;;;;;;;8.50;6.30;;;;;;;21.50;100.00;97538.52;106944;1282;25289;-80
2023/07/13 05:15:55;;;;;;;8.20;6.00;;;;;;;21.65;100.00;97533.70;107455;1282;22547;-78
2023/07/13 05:18:22;;;;;;;9.20;7.40;;;;;;;21.80;99.86;97529.73;106737;1282;24796;-78
2023/07/13 05:21:01;;;;;;;9.20;6.30;;;;;;;21.89;98.98;97524.70;106710;1282;22563;-78
2023/07/13 05:23:29;;;;;;;11.40;6.50;;;;;;;21.89;98.84;97527.60;106724;1282;25384;-78
2023/07/13 05:25:56;;;;;;;8.20;6.40;;;;;;;21.90;98.79;97528.61;106780;1282;24267;-79
2023/07/13 05:28:22;;;;;;;7.70;6.30;;;;;;;21.90;98.46;97532.85;106784;1282;23375;-80
2023/07/13 05:30:50;;;;;;;8.80;6.40;;;;;;;21.95;98.03;97533.27;106798;1282;24284;-79
2023/07/13 05:33:17;;;;;;;11.30;6.40;;;;;;;21.98;97.70;97534.31;106820;1282;22863;-78
2023/07/13 05:35:44;;;;;;;8.20;5.30;;;;;;;22.07;97.79;97531.46;106411;1282;22540;-79
2023/07/13 05:38:10;;;;;;;8.00;6.00;;;;;;;22.15;96.97;97531.84;106436;1282;25496;-79
2023/07/13 05:40:37;;;;;;;11.70;6.10;;;;;;;22.08;96.69;97517.85;106928;1282;25004;-79
2023/07/13 05:43:04;;;;;;;7.10;6.00;;;;;;;22.26;96.82;97529.23;106751;1282;24283;-77
2023/07/13 05:45:30;;;;;;;8.80;6.20;;;;;;;22.35;96.40;97523.23;106435;1282;22699;-78
2023/07/13 05:47:57;;;;;;;9.10;6.00;;;;;;;22.49;96.55;97519.83;106422;1282;24214;-79
2023/07/13 05:50:24;;;;;;;9.50;5.40;;;;;;;22.59;95.94;97523.96;106698;1282;22537;-79
2023/07/13 05:52:52;;;;;;;9.30;5.20;;;;;;;22.73;95.84;97523.05;106759;1282;22550;-79
2023/07/13 05:55:19;;;;;;;8.60;5.40;;;;;;;22.84;95.43;97527.09;106733;1282;24327;-80
2023/07/13 05:57:46;;;;;;;7.70;5.70;;;;;;;22.96;94.89;97535.70;106821;1282;22838;-80
2023/07/13 06:00:14;;;;;;;8.60;5.80;;;;;;;22.96;93.99;97535.46;106352;1282;22552;-78
2023/07/13 06:02:40;;;;;;;6.70;4.90;;;;;;;23.08;94.43;97540.13;106720;1282;26582;-79
2023/07/13 06:05:08;;;;;;;6.20;4.60;;;;;;;23.18;93.64;97539.75;106780;1282;23293;-78
2023/07/13 06:07:34;;;;;;;6.30;4.60;;;;;;;23.30;93.71;97535.91;106474;1282;22732;-78
2023/07/13 06:10:01;;;;;;;7.70;4.60;;;;;;;23.42;93.44;97531.04;106844;1282;22554;-78
2023/07/13 06:12:27;;;;;;;8.00;5.00;;;;;;;23.62;93.15;97525.07;106793;1280;22547;-78
2023/07/13 06:14:54;;;;;;;5.60;4.50;;;;;;;23.76;92.52;97521.55;106836;1275;22568;-77
2023/07/13 06:17:21;;;;;;;5.80;4.80;;;;;;;23.86;92.16;97512.34;106812;1282;25440;-77
2023/07/13 06:19:47;;;;;;;5.80;4.60;;;;;;;23.92;90.59;97511.92;106810;1263;22599;-77
2023/07/13 06:22:14;;;;;;;7.50;4.10;;;;;;;23.80;88.70;97518.08;106519;1282;22560;-78
2023/07/13 06:24:41;;;;;;;6.30;3.90;;;;;;;23.75;89.16;97520.45;106886;1262;25501;-79
2023/07/13 06:27:07;;;;;;;6.10;3.90;;;;;;;23.75;87.42;97523.83;106790;1263;23208;-78
2023/07/13 06:29:34;;;;;;;6.10;4.20;;;;;;;23.86;88.58;97520.75;106719;1282;22583;-78
2023/07/13 06:32:01;;;;;;;7.60;4.30;;;;;;;23.98;86.74;97524.10;106693;1264;22668;-79
2023/07/13 06:34:28;;;;;;;6.70;4.00;;;;;;;24.08;86.22;97523.92;106785;1282;22797;-78
2023/07/13 06:36:54;;;;;;;6.10;4.50;;;;;;;23.96;83.37;97525.13;106935;1282;23112;-77
2023/07/13 06:39:21;;;;;;;5.90;4.50;;;;;;;23.88;84.43;97522.86;106444;1265;22538;-78
2023/07/13 06:41:47;;;;;;;7.70;4.60;;;;;;;23.89;84.01;97528.29;106674;1275;26631;-77
2023/07/13 06:44:14;;;;;;;4.90;4.30;;;;;;;23.88;84.41;97529.47;106466;1282;22552;-79
2023/07/13 06:46:41;;;;;;;8.10;5.00;;;;;;;23.90;83.79;97530.72;106398;1280;22556;-79
2023/07/13 06:49:09;;;;;;;7.90;5.40;;;;;;;23.90;83.13;97528.84;106344;1278;22606;-77
2023/07/13 06:51:35;;;;;;;7.60;5.30;;;;;;;23.84;83.45;97529.63;106423;1275;25413;-77
2023/07/13 06:54:03;;;;;;;6.40;5.10;;;;;;;23.80;83.63;97528.54;106461;1282;22591;-78
2023/07/13 06:56:30;;;;;;;6.40;4.80;;;;;;;23.84;83.72;97527.59;106443;1282;24270;-77
2023/07/13 06:58:56;;;;;;;7.80;5.90;;;;;;;23.88;83.75;97528.52;106390;1264;22534;-77
2023/07/13 07:01:23;;;;;;;10.10;5.80;;;;;;;23.88;83.72;97538.97;106643;1276;22540;-77
2023/07/13 07:03:50;;;;;;;9.00;5.20;;;;;;;23.87;83.37;97539.61;106381;1282;23036;-78
2023/07/13 07:06:19;;;;;;;8.70;5.20;;;;;;;23.83;82.87;97542.77;106347;1282;24288;-78
2023/07/13 07:08:46;;;;;;;8.10;5.50;;;;;;;23.71;82.43;97546.05;106413;1282;22754;-78
2023/07/13 07:11:18;;;;;;;9.20;5.20;;;;;;;23.62;80.65;97547.70;106522;1282;22629;-78
2023/07/13 07:13:45;;;;;;;9.20;5.20;;;;;;;23.46;80.66;97543.23;106477;1282;25311;-77
2023/07/13 07:16:12;;;;;;;8.50;5.70;;;;;;;23.51;81.40;97545.27;106399;1282;24391;-77
2023/07/13 07:18:39;;;;;;;9.30;5.10;;;;;;;23.59;81.15;97547.00;106875;1272;22540;-77
2023/07/13 07:21:05;;;;;;;8.70;5.40;;;;;;;23.69;81.56;97546.61;106689;1275;22540;-77
2023/07/13 07:23:32;;;;;;;8.90;5.50;;;;;;;23.70;80.55;97543.08;106453;1282;22552;-78
2023/07/13 07:25:59;;;;;;;7.80;5.90;;;;;;;23.65;81.12;97549.20;106550;1282;25429;-78
2023/07/13 07:28:28;;;;;;;11.30;6.50;;;;;;;23.72;81.37;97549.44;106421;1282;22540;-77
2023/07/13 07:31:09;;;;;;;10.30;5.80;;;;;;;23.77;81.27;97548.59;106430;1282;25296;-77
2023/07/13 07:33:38;;;;;;;7.40;5.60;;;;;;;23.80;81.66;97552.27;106509;1282;22548;-77
2023/07/13 07:36:05;;;;;;;8.90;5.30;;;;;;;23.88;82.15;97551.56;106463;1280;22560;-77
2023/07/13 07:38:35;;;;;;;8.40;4.60;;;;;;;24.05;82.59;97554.52;106477;1268;24266;-78
2023/07/13 07:41:05;;;;;;;6.70;4.90;;;;;;;24.29;82.39;97558.23;106442;1282;24241;-78
2023/07/13 07:43:35;;;;;;;9.70;5.10;;;;;;;24.49;82.26;97563.07;106610;1282;25518;-77
2023/07/13 07:46:02;;;;;;;5.70;4.00;;;;;;;24.58;81.48;97566.11;106451;1282;25244;-78
2023/07/13 07:48:30;;;;;;;7.70;4.60;;;;;;;24.67;81.06;97569.39;106460;1282;25416;-79
2023/07/13 07:50:57;;;;;;;7.50;5.10;;;;;;;24.61;79.47;97573.82;106432;1281;22658;-78
2023/07/13 07:53:23;;;;;;;5.50;4.40;;;;;;;24.56;79.91;97573.45;106412;1282;22668;-78
2023/07/13 07:55:51;;;;;;;5.20;3.90;;;;;;;24.58;80.01;97574.14;106440;1282;22540;-78
2023/07/13 07:58:20;;;;;;;4.90;4.00;;;;;;;24.52;78.85;97572.98;106457;1282;22549;-78
2023/07/13 08:00:50;;;;;;;5.30;4.00;;;;;;;24.38;78.39;97572.92;106469;1282;22572;-77
2023/07/13 08:03:20;;;;;;;6.90;3.90;;;;;;;24.34;78.28;97576.30;106447;1276;22571;-77
2023/07/13 08:05:53;;;;;;;5.40;4.20;;;;;;;24.40;77.92;97575.05;106999;1282;24265;-77
2023/07/13 08:08:39;;;;;;;7.90;4.70;;;;;;;24.43;77.22;97577.26;106463;1282;22963;-78
2023/07/13 08:11:08;;;;;;;7.70;4.40;;;;;;;24.47;77.38;97576.70;106459;1283;25420;-77
2023/07/13 08:13:38;;;;;;;7.00;4.80;;;;;;;24.42;76.19;97575.05;106915;1282;22547;-78
2023/07/13 08:16:05;;;;;;;5.80;4.40;;;;;;;24.34;76.65;97568.77;106975;1276;22648;-77
2023/07/13 08:18:33;;;;;;;8.80;5.10;;;;;;;24.36;76.90;97563.80;107009;1282;22702;-78
2023/07/13 08:21:05;;;;;;;6.90;4.60;;;;;;;24.43;76.54;97559.23;106927;1282;25391;-78
2023/07/13 08:23:32;;;;;;;7.90;5.40;;;;;;;24.49;76.42;97553.95;106386;1282;25233;-78
2023/07/13 08:26:01;;;;;;;9.20;5.30;;;;;;;24.59;76.32;97546.03;106454;1282;24416;-80
2023/07/13 08:28:28;;;;;;;10.30;4.80;;;;;;;24.59;74.85;97550.05;106839;1282;23208;-78
2023/07/13 08:30:54;;;;;;;7.90;5.40;;;;;;;24.49;75.13;97554.34;106961;1282;22625;-79
2023/07/13 08:33:25;;;;;;;9.40;5.00;;;;;;;24.46;75.15;97549.71;106922;1275;23921;-79
2023/07/13 08:35:52;;;;;;;6.40;4.80;;;;;;;24.44;75.02;97553.02;106719;1282;25331;-80
2023/07/13 08:38:18;;;;;;;10.00;5.00;;;;;;;24.40;74.33;97553.95;106859;1282;22551;-80
2023/07/13 08:40:51;;;;;;;7.70;5.00;;;;;;;24.29;73.69;97556.98;106968;1269;23436;-78
2023/07/13 08:43:25;;;;;;;7.20;5.80;;;;;;;24.14;73.95;97552.45;106959;1282;25473;-79
2023/07/13 08:46:08;;;;;;;7.40;5.00;;;;;;;24.09;73.46;97551.98;106879;1282;23694;-78
2023/07/13 08:48:58;;;;;;;9.90;5.40;;;;;;;23.99;73.96;97549.58;106946;1282;22575;-77
2023/07/13 08:51:39;;;;;;;7.00;5.10;;;;;;;23.98;73.82;97540.94;106917;1282;22542;-78
2023/07/13 08:54:24;;;;;;;10.10;5.80;;;;;;;23.93;73.74;97538.42;107015;1282;22543;-78
2023/07/13 08:56:53;;;;;;;8.20;4.60;;;;;;;23.94;74.09;97534.65;106900;1282;22595;-78
2023/07/13 08:59:28;;;;;;;6.90;4.80;;;;;;;24.05;73.68;97531.48;106693;1282;25264;-77
2023/07/13 09:02:13;;;;;;;8.50;5.70;;;;;;;24.04;73.27;97527.86;106867;1282;22796;-78
2023/07/13 09:04:50;;;;;;;9.40;5.40;;;;;;;23.99;73.28;97526.77;106935;1282;24094;-78
2023/07/13 09:07:40;;;;;;;11.30;5.20;;;;;;;23.99;73.69;97525.74;106934;1282;25352;-78
2023/07/13 09:10:32;;;;;;;11.70;5.90;;;;;;;23.99;73.13;97530.16;106966;1282;22693;-78
2023/07/13 09:13:43;;;;;;;12.50;6.10;;;;;;;23.98;73.33;97529.23;106464;1282;22572;-79
2023/07/13 09:16:11;;;;;;;8.20;4.60;;;;;;;23.96;72.81;97528.59;106858;1282;22608;-79
2023/07/13 09:18:49;;;;;;;11.40;5.30;;;;;;;23.94;72.99;97535.90;106907;1282;22588;-78
2023/07/13 09:21:23;;;;;;;10.10;5.60;;;;;;;23.95;72.92;97534.26;106913;1282;24265;-78
2023/07/13 09:23:56;;;;;;;10.90;5.10;;;;;;;23.96;73.07;97535.11;106948;1282;24390;-78
2023/07/13 09:26:25;;;;;;;8.90;6.10;;;;;;;23.97;72.94;97536.45;106897;1282;22573;-78
2023/07/13 09:28:58;;;;;;;10.70;5.50;;;;;;;23.84;73.55;97539.52;106987;1282;24223;-78
2023/07/13 09:31:39;;;;;;;10.50;5.60;;;;;;;23.61;74.29;97543.14;106916;1282;22602;-78
2023/07/13 09:34:11;;;;;;;10.40;5.60;;;;;;;23.47;75.26;97540.63;106900;1282;22625;-78
2023/07/13 09:36:38;;;;;;;10.90;6.60;;;;;;;23.36;75.20;97539.52;106919;1265;25590;-77
2023/07/13 09:39:14;;;;;;;6.30;4.80;;;;;;;23.27;75.56;97540.31;106908;1281;23442;-78
2023/07/13 09:42:19;;;;;;;7.50;4.40;;;;;;;23.18;75.74;97547.52;106448;1282;22542;-80
2023/07/13 09:45:02;;;;;;;7.60;5.60;;;;;;;23.11;76.28;97553.40;106414;1289;22545;-77
2023/07/13 09:47:32;;;;;;;10.60;4.70;;;;;;;23.02;77.01;97553.63;106331;1290;22557;-78
2023/07/13 09:50:05;;;;;;;7.40;4.80;;;;;;;22.89;77.59;97552.39;106461;1283;24467;-78
2023/07/13 09:52:47;;;;;;;8.70;5.30;;;;;;;22.81;77.77;97555.11;105960;1290;25509;-79
2023/07/13 09:55:25;;;;;;;7.20;4.80;;;;;;;22.77;77.83;97555.89;106358;1290;23466;-79
2023/07/13 09:57:52;;;;;;;7.00;4.60;;;;;;;22.75;78.68;97558.95;106394;1279;22769;-79
2023/07/13 10:00:26;;;;;;;8.10;5.20;;;;;;;22.70;79.00;97555.92;106334;1290;23968;-79
2023/07/13 10:03:03;;;;;;;10.10;5.30;;;;;;;22.65;78.95;97557.56;106379;1290;22554;-77
2023/07/13 10:05:45;;;;;;;9.90;5.90;;;;;;;22.62;79.90;97557.63;106417;1290;23174;-77
2023/07/13 10:08:18;;;;;;;12.80;5.50;;;;;;;22.58;79.98;97558.23;106306;1290;26591;-77
2023/07/13 10:10:45;;;;;;;15.90;6.40;;;;;;;22.55;80.57;97554.00;105991;1285;22572;-77
2023/07/13 10:13:36;;;;;;;13.10;6.10;;;;;;;22.53;80.63;97559.09;105912;1290;23041;-77
2023/07/13 10:16:08;;;;;;;10.60;6.20;;;;;;;22.52;80.78;97562.21;106714;1282;25254;-76
2023/07/13 10:18:55;;;;;;;15.30;7.00;;;;;;;22.47;80.94;97560.08;106583;1282;22617;-77
2023/07/13 10:21:27;;;;;;;17.30;7.10;;;;;;;22.46;82.07;97558.20;106278;1282;22541;-77
2023/07/13 10:24:30;;;;;;;13.40;7.00;;;;;;;22.43;82.44;97555.91;106934;1282;25458;-77
2023/07/13 10:27:12;;;;;;;19.30;7.10;;;;;;;22.38;82.37;97562.47;106495;1282;25301;-76
2023/07/13 10:29:48;;;;;;;20.10;8.00;;;;;;;22.29;82.42;97567.90;106502;1276;24392;-77
2023/07/13 10:32:15;;;;;;;13.80;8.00;;;;;;;22.18;82.61;97574.90;106455;1282;22644;-76
2023/07/13 10:34:47;;;;;;;20.70;7.70;;;;;;;22.11;82.97;97579.23;106461;1282;22784;-77
2023/07/13 10:37:24;;;;;;;18.40;8.60;;;;;;;22.07;83.97;97581.71;106514;1282;22552;-76
2023/07/13 10:39:54;;;;;;;13.00;8.70;;;;;;;22.02;87.08;97591.86;106426;1281;22562;-77
2023/07/13 10:42:44;;;;;;;10.80;7.90;;;;;;;21.83;87.80;97601.29;106771;1282;25531;-78
2023/07/13 10:45:21;;;;;;;14.10;8.40;;;;;;;21.47;91.53;97617.59;106908;1276;25326;-80
2023/07/13 10:47:52;;;;;;;11.80;6.60;;;;;;;20.84;92.95;97651.70;106938;1282;24150;-79
2023/07/13 10:50:27;;;;;;;9.40;7.20;;;;;;;20.16;94.58;97672.01;106953;1282;25492;-79
2023/07/13 10:53:01;;;;;;;7.70;5.30;;;;;;;19.18;97.09;97689.55;107112;1259;22537;-80
2023/07/13 10:55:35;;;;;;;;;;;;;;;18.37;99.32;97699.02;107075;1282;22556;-78
2023/07/13 10:58:14;;;;;;;6.50;4.50;;;;;;;17.58;100.00;97710.91;106971;1282;25332;-76
2023/07/13 11:01:09;;;;;;;8.80;5.70;;;;;;;17.04;100.00;97728.73;106442;1282;22548;-77
2023/07/13 11:03:50;;;;;;;9.70;5.60;;;;;;;16.49;100.00;97719.23;107158;1263;22603;-79
2023/07/13 11:06:46;;;;;;;13.40;7.30;;;;;;;16.30;100.00;97719.67;107415;1279;22555;-79
2023/07/13 11:09:21;;;;;;;9.70;5.30;;;;;;;16.19;100.00;97732.45;107277;1283;23347;-81
2023/07/13 11:11:48;;;;;;;6.90;4.60;;;;;;;15.96;100.00;97738.43;106871;1279;22588;-81
2023/07/13 11:14:27;;;;;;;5.40;3.70;;;;;;;15.66;100.00;97735.80;107040;1283;22663;-78
2023/07/13 11:16:54;;;;;;;7.60;4.20;;;;;;;15.37;100.00;97732.53;107048;1275;23304;-79
2023/07/13 11:19:20;;;;;;;6.40;4.50;;;;;;;15.26;100.00;97729.48;106393;1282;25483;-78
2023/07/13 11:22:13;;;;;;;5.80;4.10;;;;;;;15.21;100.00;97735.29;106403;1282;24024;-77
2023/07/13 11:25:19;;;;;;;6.10;4.00;;;;;;;15.16;100.00;97734.88;106479;1282;25265;-77
2023/07/13 11:27:51;;;;;;;5.70;3.80;;;;;;;15.17;100.00;97734.27;106432;1282;22770;-78
2023/07/13 11:30:34;;;;;;;5.60;3.50;;;;;;;15.17;100.00;97726.06;106424;1282;25413;-78
2023/07/13 11:33:15;;;;;;;7.20;3.70;;;;;;;15.21;100.00;97732.41;106418;1282;22579;-77
2023/07/13 11:35:50;;;;;;;5.50;3.70;;;;;;;15.24;100.00;97724.61;106420;1282;25264;-77
2023/07/13 11:38:23;;;;;;;4.90;3.80;;;;;;;15.25;100.00;97728.30;106389;1282;22542;-78